This is the latest recevied weather packets stored in our database for station/object N1JOV-7. If no packets are shown the sender has not sent any weather packets the latest 10 day(s).
| Time | Temp. | Humidity | Pressure | Rain* | Wind** | Luminosity | Snow |
|---|---|---|---|---|---|---|---|
| 1777700462 | 3.33° C | 75% | 1012.7 hPa | 0 mm | - | - | - |
| 1777699861 | 3.33° C | 75% | 1012.7 hPa | 0 mm | - | - | - |
| 1777699261 | 3.33° C | 75% | 1012.7 hPa | 0 mm | - | - | - |
| 1777698662 | 3.33° C | 75% | 1012.7 hPa | 0 mm | - | - | - |
| 1777698062 | 3.33° C | 75% | 1012.7 hPa | 0 mm | - | - | - |
| 1777697462 | 3.33° C | 75% | 1012.7 hPa | 0 mm | - | - | - |
| 1777696862 | 3.33° C | 75% | 1012.7 hPa | 0 mm | - | - | - |
| 1777696261 | 3.33° C | 75% | 1012.7 hPa | 0 mm | - | - | - |
| 1777695661 | 3.33° C | 75% | 1012.7 hPa | 0 mm | - | - | - |
| 1777695061 | 3.33° C | 75% | 1012.7 hPa | 0 mm | - | - | - |
| 1777694462 | 3.33° C | 75% | 1012.7 hPa | 0 mm | - | - | - |
| 1777693862 | 3.89° C | 73% | 1012.6 hPa | 0 mm | - | - | - |
| 1777693262 | 4.44° C | 71% | 1012.6 hPa | 0 mm | - | - | - |
| 1777692662 | 3.89° C | 69% | 1012.5 hPa | 0 mm | - | - | - |
| 1777692061 | 4.44° C | 67% | 1012.6 hPa | 0 mm | - | - | - |
| 1777691461 | 5° C | 64% | 1012.5 hPa | 0 mm | - | - | - |
| 1777690861 | 5.56° C | 63% | 1012.4 hPa | 0 mm | - | - | - |
| 1777690262 | 5.56° C | 64% | 1012.4 hPa | 0 mm | - | - | - |
| 1777689662 | 6.67° C | 59% | 1012.3 hPa | 0 mm | - | - | - |
| 1777689062 | 6.11° C | 59% | 1012.4 hPa | 0 mm | - | - | - |
| 1777688462 | 6.11° C | 61% | 1012.4 hPa | 0 mm | - | - | - |
| 1777687862 | 6.11° C | 62% | 1012.4 hPa | 0 mm | - | - | - |
| 1777687276 | 6.67° C | 62% | 1012.3 hPa | 0 mm | - | - | - |
| 1777686662 | 7.22° C | 62% | 1012.1 hPa | 0 mm | - | - | - |
| 1777686062 | 7.78° C | 56% | 1012.2 hPa | 0 mm | - | - | - |
* Rain latest hour (hover to see other rain measurements)
** Current wind speed in m/s (hover to see current wind gust speed)